sensor_id;sensor_type;location;lat;lon;timestamp;pressure;altitude;pressure_sealevel;temperature;humidity
64158;BME280;50449;51.528;5.076;2023-03-31T00:00:21;100262.97;;;17.46;54.16
64158;BME280;50449;51.528;5.076;2023-03-31T00:02:47;100254.28;;;17.44;54.05
64158;BME280;50449;51.528;5.076;2023-03-31T00:05:12;100251.56;;;17.44;54.40
64158;BME280;50449;51.528;5.076;2023-03-31T00:07:42;100238.19;;;17.42;54.36
64158;BME280;50449;51.528;5.076;2023-03-31T00:10:08;100226.47;;;17.42;54.64
64158;BME280;50449;51.528;5.076;2023-03-31T00:12:35;100219.38;;;17.41;54.18
64158;BME280;50449;51.528;5.076;2023-03-31T00:15:00;100207.66;;;17.40;54.61
64158;BME280;50449;51.528;5.076;2023-03-31T00:17:25;100199.78;;;17.39;54.74
64158;BME280;50449;51.528;5.076;2023-03-31T00:19:51;100196.22;;;17.38;54.54
64158;BME280;50449;51.528;5.076;2023-03-31T00:22:18;100198.94;;;17.38;54.80
64158;BME280;50449;51.528;5.076;2023-03-31T00:24:46;100184.81;;;17.36;54.71
64158;BME280;50449;51.528;5.076;2023-03-31T00:27:12;100186.69;;;17.36;54.56
64158;BME280;50449;51.528;5.076;2023-03-31T00:29:37;100172.53;;;17.34;54.31
64158;BME280;50449;51.528;5.076;2023-03-31T00:32:06;100172.84;;;17.32;54.46
64158;BME280;50449;51.528;5.076;2023-03-31T00:34:32;100163.03;;;17.31;54.30
64158;BME280;50449;51.528;5.076;2023-03-31T00:36:57;100156.47;;;17.32;54.81
64158;BME280;50449;51.528;5.076;2023-03-31T00:39:27;100162.22;;;17.30;54.34
64158;BME280;50449;51.528;5.076;2023-03-31T00:41:57;100160.63;;;17.29;54.48
64158;BME280;50449;51.528;5.076;2023-03-31T00:44:24;100153.53;;;17.28;54.78
64158;BME280;50449;51.528;5.076;2023-03-31T00:46:59;100151.41;;;17.25;54.60
64158;BME280;50449;51.528;5.076;2023-03-31T00:49:58;100151.22;;;17.22;54.69
64158;BME280;50449;51.528;5.076;2023-03-31T00:52:29;100144.94;;;17.21;54.71
64158;BME280;50449;51.528;5.076;2023-03-31T00:54:59;100131.59;;;17.20;54.58
64158;BME280;50449;51.528;5.076;2023-03-31T00:57:27;100135.13;;;17.20;54.85
64158;BME280;50449;51.528;5.076;2023-03-31T00:59:59;100133.53;;;17.19;54.55
64158;BME280;50449;51.528;5.076;2023-03-31T01:02:26;100130.78;;;17.19;54.58
64158;BME280;50449;51.528;5.076;2023-03-31T01:04:56;100124.81;;;17.17;54.52
64158;BME280;50449;51.528;5.076;2023-03-31T01:07:31;100118.56;;;17.17;54.57
64158;BME280;50449;51.528;5.076;2023-03-31T01:10:01;100118.06;;;17.15;54.52
64158;BME280;50449;51.528;5.076;2023-03-31T01:12:29;100117.25;;;17.14;54.55
64158;BME280;50449;51.528;5.076;2023-03-31T01:14:57;100112.41;;;17.11;54.78
64158;BME280;50449;51.528;5.076;2023-03-31T01:17:22;100107.75;;;17.12;54.47
64158;BME280;50449;51.528;5.076;2023-03-31T01:19:51;100097.91;;;17.11;54.59
64158;BME280;50449;51.528;5.076;2023-03-31T01:25:02;100089.25;;;17.08;54.63
64158;BME280;50449;51.528;5.076;2023-03-31T01:28:00;100077.81;;;17.06;54.87
64158;BME280;50449;51.528;5.076;2023-03-31T01:44:40;100042.84;;;16.95;55.05
64158;BME280;50449;51.528;5.076;2023-03-31T01:47:35;100028.19;;;16.91;54.65
64158;BME280;50449;51.528;5.076;2023-03-31T01:50:13;100025.16;;;16.92;54.79
64158;BME280;50449;51.528;5.076;2023-03-31T01:52:52;100009.09;;;16.91;54.67
64158;BME280;50449;51.528;5.076;2023-03-31T01:55:38;100004.75;;;16.90;54.70
64158;BME280;50449;51.528;5.076;2023-03-31T01:58:29;99996.06;;;16.87;55.11
64158;BME280;50449;51.528;5.076;2023-03-31T02:01:01;99993.34;;;16.87;54.67
64158;BME280;50449;51.528;5.076;2023-03-31T02:03:34;99972.63;;;16.86;54.84
64158;BME280;50449;51.528;5.076;2023-03-31T02:06:11;99966.38;;;16.86;54.88
64158;BME280;50449;51.528;5.076;2023-03-31T02:08:49;99962.81;;;16.85;55.00
64158;BME280;50449;51.528;5.076;2023-03-31T02:11:16;99954.63;;;16.85;55.15
64158;BME280;50449;51.528;5.076;2023-03-31T02:13:44;99949.50;;;16.84;54.82
64158;BME280;50449;51.528;5.076;2023-03-31T02:16:15;99947.56;;;16.84;55.13
64158;BME280;50449;51.528;5.076;2023-03-31T02:18:45;99935.06;;;16.83;54.79
64158;BME280;50449;51.528;5.076;2023-03-31T02:21:11;99920.59;;;16.83;55.13
64158;BME280;50449;51.528;5.076;2023-03-31T02:23:39;99919.00;;;16.82;55.10
64158;BME280;50449;51.528;5.076;2023-03-31T02:26:11;99904.56;;;16.81;54.78
64158;BME280;50449;51.528;5.076;2023-03-31T02:28:39;99902.91;;;16.80;55.15
64158;BME280;50449;51.528;5.076;2023-03-31T02:33:52;99875.16;;;16.78;54.71
64158;BME280;50449;51.528;5.076;2023-03-31T02:36:18;99870.78;;;16.77;54.91
64158;BME280;50449;51.528;5.076;2023-03-31T02:38:50;99853.63;;;16.77;54.76
64158;BME280;50449;51.528;5.076;2023-03-31T02:41:18;99836.44;;;16.76;55.07
64158;BME280;50449;51.528;5.076;2023-03-31T02:43:44;99844.63;;;16.76;55.15
64158;BME280;50449;51.528;5.076;2023-03-31T02:46:09;99850.88;;;16.77;55.00
64158;BME280;50449;51.528;5.076;2023-03-31T02:48:38;99850.09;;;16.76;54.93
64158;BME280;50449;51.528;5.076;2023-03-31T02:59:15;99803.63;;;16.67;54.96
64158;BME280;50449;51.528;5.076;2023-03-31T03:04:49;99791.41;;;16.65;55.30
64158;BME280;50449;51.528;5.076;2023-03-31T03:12:37;99769.91;;;16.63;55.28
64158;BME280;50449;51.528;5.076;2023-03-31T03:15:08;99760.13;;;16.62;54.85
64158;BME280;50449;51.528;5.076;2023-03-31T03:17:43;99762.53;;;16.64;55.05
64158;BME280;50449;51.528;5.076;2023-03-31T03:20:11;99763.63;;;16.63;54.65
64158;BME280;50449;51.528;5.076;2023-03-31T03:22:38;99753.06;;;16.61;55.29
64158;BME280;50449;51.528;5.076;2023-03-31T03:25:05;99749.22;;;16.62;54.73
64158;BME280;50449;51.528;5.076;2023-03-31T03:27:30;99753.06;;;16.61;55.04
64158;BME280;50449;51.528;5.076;2023-03-31T03:29:57;99747.59;;;16.61;55.02
64158;BME280;50449;51.528;5.076;2023-03-31T03:32:22;99739.72;;;16.60;54.81
64158;BME280;50449;51.528;5.076;2023-03-31T03:34:48;99723.38;;;16.60;55.07
64158;BME280;50449;51.528;5.076;2023-03-31T03:37:13;99704.91;;;16.57;55.01
64158;BME280;50449;51.528;5.076;2023-03-31T03:39:39;99708.75;;;16.56;55.38
64158;BME280;50449;51.528;5.076;2023-03-31T03:42:04;99702.81;;;16.54;54.97
64158;BME280;50449;51.528;5.076;2023-03-31T03:44:30;99693.50;;;16.55;55.32
64158;BME280;50449;51.528;5.076;2023-03-31T03:46:55;99685.66;;;16.53;55.17
64158;BME280;50449;51.528;5.076;2023-03-31T03:49:20;99679.69;;;16.51;55.00
64158;BME280;50449;51.528;5.076;2023-03-31T03:51:46;99667.97;;;16.51;55.03
64158;BME280;50449;51.528;5.076;2023-03-31T03:54:11;99665.25;;;16.51;55.24
64158;BME280;50449;51.528;5.076;2023-03-31T03:56:37;99653.06;;;16.48;55.38
64158;BME280;50449;51.528;5.076;2023-03-31T03:59:02;99650.31;;;16.48;55.02
64158;BME280;50449;51.528;5.076;2023-03-31T04:01:28;99642.16;;;16.48;55.29
64158;BME280;50449;51.528;5.076;2023-03-31T04:03:53;99638.59;;;16.48;55.09
64158;BME280;50449;51.528;5.076;2023-03-31T04:06:18;99624.16;;;16.47;55.45
64158;BME280;50449;51.528;5.076;2023-03-31T04:08:44;99627.69;;;16.48;55.47
64158;BME280;50449;51.528;5.076;2023-03-31T04:11:14;99624.50;;;16.46;55.34
64158;BME280;50449;51.528;5.076;2023-03-31T04:13:41;99610.03;;;16.45;55.33
64158;BME280;50449;51.528;5.076;2023-03-31T04:16:07;99618.53;;;16.43;55.54
64158;BME280;50449;51.528;5.076;2023-03-31T04:18:32;99609.06;;;16.41;55.63
64158;BME280;50449;51.528;5.076;2023-03-31T04:21:02;99596.53;;;16.40;55.23
64158;BME280;50449;51.528;5.076;2023-03-31T04:23:35;99584.03;;;16.39;55.15
64158;BME280;50449;51.528;5.076;2023-03-31T04:26:11;99584.03;;;16.39;55.22
64158;BME280;50449;51.528;5.076;2023-03-31T04:28:38;99573.44;;;16.37;55.45
64158;BME280;50449;51.528;5.076;2023-03-31T04:31:09;99570.69;;;16.37;55.50
64158;BME280;50449;51.528;5.076;2023-03-31T04:33:39;99557.06;;;16.37;55.26
64158;BME280;50449;51.528;5.076;2023-03-31T04:36:05;99550.03;;;16.36;55.31
64158;BME280;50449;51.528;5.076;2023-03-31T04:38:42;99547.59;;;16.35;55.06
64158;BME280;50449;51.528;5.076;2023-03-31T04:41:13;99545.69;;;16.35;55.22
64158;BME280;50449;51.528;5.076;2023-03-31T04:43:39;99542.94;;;16.35;55.25
64158;BME280;50449;51.528;5.076;2023-03-31T04:46:05;99526.94;;;16.34;55.55
64158;BME280;50449;51.528;5.076;2023-03-31T04:48:30;99527.22;;;16.32;55.49
64158;BME280;50449;51.528;5.076;2023-03-31T04:50:55;99519.84;;;16.33;55.27
64158;BME280;50449;51.528;5.076;2023-03-31T04:53:21;99514.72;;;16.31;55.60
64158;BME280;50449;51.528;5.076;2023-03-31T04:55:48;99509.56;;;16.30;55.47
64158;BME280;50449;51.528;5.076;2023-03-31T04:58:14;99502.19;;;16.30;55.33
64158;BME280;50449;51.528;5.076;2023-03-31T05:00:39;99490.50;;;16.30;55.33
64158;BME280;50449;51.528;5.076;2023-03-31T05:03:05;99490.84;;;16.28;55.31
64158;BME280;50449;51.528;5.076;2023-03-31T05:05:31;99475.59;;;16.27;55.46
64158;BME280;50449;51.528;5.076;2023-03-31T05:07:56;99491.94;;;16.27;55.34
64158;BME280;50449;51.528;5.076;2023-03-31T05:10:22;99488.41;;;16.27;55.43
64158;BME280;50449;51.528;5.076;2023-03-31T05:12:48;99475.91;;;16.26;55.61
64158;BME280;50449;51.528;5.076;2023-03-31T05:15:14;99465.00;;;16.26;55.45
64158;BME280;50449;51.528;5.076;2023-03-31T05:17:39;99475.41;;;16.23;55.54
64158;BME280;50449;51.528;5.076;2023-03-31T05:20:05;99477.63;;;16.21;55.14
64158;BME280;50449;51.528;5.076;2023-03-31T05:22:36;99476.84;;;16.21;55.52
64158;BME280;50449;51.528;5.076;2023-03-31T05:25:04;99475.22;;;16.20;55.40
64158;BME280;50449;51.528;5.076;2023-03-31T05:27:30;99476.34;;;16.19;55.22
64158;BME280;50449;51.528;5.076;2023-03-31T05:29:56;99476.34;;;16.19;55.55
64158;BME280;50449;51.528;5.076;2023-03-31T05:32:21;99475.53;;;16.18;55.41
64158;BME280;50449;51.528;5.076;2023-03-31T05:34:46;99485.94;;;16.16;55.35
64158;BME280;50449;51.528;5.076;2023-03-31T05:37:13;99477.75;;;16.16;55.32
64158;BME280;50449;51.528;5.076;2023-03-31T05:39:39;99479.69;;;16.16;55.12
64158;BME280;50449;51.528;5.076;2023-03-31T05:42:05;99477.75;;;16.16;55.19
64158;BME280;50449;51.528;5.076;2023-03-31T05:44:31;99479.38;;;16.17;55.47
64158;BME280;50449;51.528;5.076;2023-03-31T05:46:57;99467.66;;;16.17;55.18
64158;BME280;50449;51.528;5.076;2023-03-31T05:49:22;99464.94;;;16.17;55.46
64158;BME280;50449;51.528;5.076;2023-03-31T05:51:47;99466.88;;;16.16;55.29
64158;BME280;50449;51.528;5.076;2023-03-31T05:54:13;99461.41;;;16.16;55.13
64158;BME280;50449;51.528;5.076;2023-03-31T05:56:38;99456.28;;;16.15;55.29
64158;BME280;50449;51.528;5.076;2023-03-31T05:59:04;99457.41;;;16.14;55.58
64158;BME280;50449;51.528;5.076;2023-03-31T06:01:29;99451.94;;;16.14;55.15
64158;BME280;50449;51.528;5.076;2023-03-31T06:03:55;99453.09;;;16.13;55.31
64158;BME280;50449;51.528;5.076;2023-03-31T06:06:21;99456.91;;;16.12;55.31
64158;BME280;50449;51.528;5.076;2023-03-31T06:08:47;99437.03;;;16.11;55.03
64158;BME280;50449;51.528;5.076;2023-03-31T06:11:17;99424.53;;;16.10;55.22
64158;BME280;50449;51.528;5.076;2023-03-31T06:13:46;99421.00;;;16.10;55.41
64158;BME280;50449;51.528;5.076;2023-03-31T06:16:14;99434.59;;;16.10;55.67
64158;BME280;50449;51.528;5.076;2023-03-31T06:18:40;99418.59;;;16.08;55.29
64158;BME280;50449;51.528;5.076;2023-03-31T06:21:06;99431.41;;;16.08;55.14
64158;BME280;50449;51.528;5.076;2023-03-31T06:23:32;99413.44;;;16.07;55.46
64158;BME280;50449;51.528;5.076;2023-03-31T06:26:02;99405.28;;;16.07;55.58
64158;BME280;50449;51.528;5.076;2023-03-31T06:28:29;99398.22;;;16.06;55.64
64158;BME280;50449;51.528;5.076;2023-03-31T06:31:03;99397.75;;;16.04;55.32
64158;BME280;50449;51.528;5.076;2023-03-31T06:33:29;99402.38;;;16.03;55.78
64158;BME280;50449;51.528;5.076;2023-03-31T06:35:56;99391.00;;;16.01;55.51
64158;BME280;50449;51.528;5.076;2023-03-31T06:38:22;99386.63;;;16.00;55.56
64158;BME280;50449;51.528;5.076;2023-03-31T06:40:47;99386.63;;;16.00;55.82
64158;BME280;50449;51.528;5.076;2023-03-31T06:43:13;99374.94;;;15.99;55.67
64158;BME280;50449;51.528;5.076;2023-03-31T06:45:38;99385.84;;;15.99;55.69
64158;BME280;50449;51.528;5.076;2023-03-31T06:48:06;99375.75;;;16.00;55.26
64158;BME280;50449;51.528;5.076;2023-03-31T06:50:32;99372.56;;;15.98;55.28
64158;BME280;50449;51.528;5.076;2023-03-31T06:52:57;99373.66;;;15.97;55.62
64158;BME280;50449;51.528;5.076;2023-03-31T06:55:24;99364.69;;;15.96;55.75
64158;BME280;50449;51.528;5.076;2023-03-31T06:57:49;99366.63;;;15.96;55.69
64158;BME280;50449;51.528;5.076;2023-03-31T07:00:15;99365.63;;;15.92;55.82
64158;BME280;50449;51.528;5.076;2023-03-31T07:02:41;99364.03;;;15.91;55.66
64158;BME280;50449;51.528;5.076;2023-03-31T07:05:07;99357.78;;;15.90;56.01
64158;BME280;50449;51.528;5.076;2023-03-31T07:07:33;99358.06;;;15.89;55.92
64158;BME280;50449;51.528;5.076;2023-03-31T07:09:58;99355.34;;;15.89;55.50
64158;BME280;50449;51.528;5.076;2023-03-31T07:12:23;99358.38;;;15.87;56.08
64158;BME280;50449;51.528;5.076;2023-03-31T07:14:49;99351.84;;;15.88;55.66
64158;BME280;50449;51.528;5.076;2023-03-31T07:17:14;99347.50;;;15.87;55.97
64158;BME280;50449;51.528;5.076;2023-03-31T07:19:40;99340.44;;;15.86;55.80
64158;BME280;50449;51.528;5.076;2023-03-31T07:22:07;99339.31;;;15.87;55.43
64158;BME280;50449;51.528;5.076;2023-03-31T07:24:32;99347.50;;;15.87;55.79
64158;BME280;50449;51.528;5.076;2023-03-31T07:26:57;99343.16;;;15.86;55.84
64158;BME280;50449;51.528;5.076;2023-03-31T07:29:23;99339.31;;;15.87;55.65
64158;BME280;50449;51.528;5.076;2023-03-31T07:31:48;99332.56;;;15.85;55.54
64158;BME280;50449;51.528;5.076;2023-03-31T07:34:14;99339.16;;;15.84;55.93
64158;BME280;50449;51.528;5.076;2023-03-31T07:36:40;99339.16;;;15.84;56.08
64158;BME280;50449;51.528;5.076;2023-03-31T07:39:08;99342.16;;;15.82;56.01
64158;BME280;50449;51.528;5.076;2023-03-31T07:41:34;99337.56;;;15.83;55.86
64158;BME280;50449;51.528;5.076;2023-03-31T07:44:00;99336.44;;;15.84;55.94
64158;BME280;50449;51.528;5.076;2023-03-31T07:46:27;99335.31;;;15.85;55.65
64158;BME280;50449;51.528;5.076;2023-03-31T07:48:54;99333.72;;;15.84;56.06
64158;BME280;50449;51.528;5.076;2023-03-31T07:51:22;99337.22;;;15.84;55.54
64158;BME280;50449;51.528;5.076;2023-03-31T07:53:49;99334.50;;;15.84;55.84
64158;BME280;50449;51.528;5.076;2023-03-31T07:56:20;99323.63;;;15.84;55.77
64158;BME280;50449;51.528;5.076;2023-03-31T07:58:46;99336.44;;;15.84;56.14
64158;BME280;50449;51.528;5.076;2023-03-31T08:01:16;99325.53;;;15.84;56.00
64158;BME280;50449;51.528;5.076;2023-03-31T08:03:42;99334.50;;;15.84;55.68
64158;BME280;50449;51.528;5.076;2023-03-31T08:06:08;99325.53;;;15.84;56.01
64158;BME280;50449;51.528;5.076;2023-03-31T08:08:33;99327.47;;;15.83;55.86
64158;BME280;50449;51.528;5.076;2023-03-31T08:10:59;99322.00;;;15.83;56.03
64158;BME280;50449;51.528;5.076;2023-03-31T08:13:24;99322.81;;;15.84;56.09
64158;BME280;50449;51.528;5.076;2023-03-31T08:15:50;99319.28;;;15.83;56.23
64158;BME280;50449;51.528;5.076;2023-03-31T08:18:15;99320.88;;;15.84;56.15
64158;BME280;50449;51.528;5.076;2023-03-31T08:20:41;99312.72;;;15.84;55.63
64158;BME280;50449;51.528;5.076;2023-03-31T08:23:06;99314.66;;;15.84;56.22
64158;BME280;50449;51.528;5.076;2023-03-31T08:25:35;99311.63;;;15.85;56.30
64158;BME280;50449;51.528;5.076;2023-03-31T08:28:01;99316.25;;;15.85;56.10
64158;BME280;50449;51.528;5.076;2023-03-31T08:30:26;99308.91;;;15.85;55.88
64158;BME280;50449;51.528;5.076;2023-03-31T08:32:52;99310.50;;;15.86;56.08
64158;BME280;50449;51.528;5.076;2023-03-31T08:35:17;99300.72;;;15.85;56.09
64158;BME280;50449;51.528;5.076;2023-03-31T08:37:43;99304.25;;;15.86;56.06
64158;BME280;50449;51.528;5.076;2023-03-31T08:40:18;99297.69;;;15.87;55.94
64158;BME280;50449;51.528;5.076;2023-03-31T08:42:47;99290.63;;;15.86;56.01
64158;BME280;50449;51.528;5.076;2023-03-31T08:45:33;99293.03;;;15.87;56.48
64158;BME280;50449;51.528;5.076;2023-03-31T08:48:26;99289.66;;;15.82;56.65
64158;BME280;50449;51.528;5.076;2023-03-31T08:51:02;99288.84;;;15.81;56.46
64158;BME280;50449;51.528;5.076;2023-03-31T08:53:40;99298.16;;;15.80;56.96
64158;BME280;50449;51.528;5.076;2023-03-31T08:56:11;99285.31;;;15.81;56.82
64158;BME280;50449;51.528;5.076;2023-03-31T08:58:41;99294.00;;;15.83;57.00
64158;BME280;50449;51.528;5.076;2023-03-31T09:01:47;99294.78;;;15.83;56.91
64158;BME280;50449;51.528;5.076;2023-03-31T09:09:38;99291.72;;;15.85;56.73
64158;BME280;50449;51.528;5.076;2023-03-31T09:12:12;99288.72;;;15.86;56.88
64158;BME280;50449;51.528;5.076;2023-03-31T09:14:45;99288.56;;;15.91;56.54
64158;BME280;50449;51.528;5.076;2023-03-31T09:17:22;99288.06;;;15.89;56.82
64158;BME280;50449;51.528;5.076;2023-03-31T09:20:05;99280.25;;;15.88;56.72
64158;BME280;50449;51.528;5.076;2023-03-31T09:22:37;99280.25;;;15.88;57.05
64158;BME280;50449;51.528;5.076;2023-03-31T09:25:10;99263.91;;;15.88;57.19
64158;BME280;50449;51.528;5.076;2023-03-31T09:27:40;99261.47;;;15.86;57.13
64158;BME280;50449;51.528;5.076;2023-03-31T09:30:41;99266.28;;;15.89;57.01
64158;BME280;50449;51.528;5.076;2023-03-31T09:33:14;99264.38;;;15.90;56.77
64158;BME280;50449;51.528;5.076;2023-03-31T09:35:41;99262.94;;;15.92;57.21
64158;BME280;50449;51.528;5.076;2023-03-31T09:38:10;99268.38;;;15.92;56.92
64158;BME280;50449;51.528;5.076;2023-03-31T09:40:36;99258.78;;;15.95;57.08
64158;BME280;50449;51.528;5.076;2023-03-31T09:43:24;99251.44;;;15.95;57.12
64158;BME280;50449;51.528;5.076;2023-03-31T09:45:51;99259.78;;;15.99;57.28
64158;BME280;50449;51.528;5.076;2023-03-31T09:48:28;99253.19;;;16.00;57.25
64158;BME280;50449;51.528;5.076;2023-03-31T09:50:59;99246.31;;;16.02;57.20
64158;BME280;50449;51.528;5.076;2023-03-31T09:56:07;99236.09;;;16.08;56.95
64158;BME280;50449;51.528;5.076;2023-03-31T09:58:44;99242.50;;;16.04;57.02
64158;BME280;50449;51.528;5.076;2023-03-31T10:01:14;99237.53;;;16.06;57.11
64158;BME280;50449;51.528;5.076;2023-03-31T10:03:50;99245.22;;;16.04;57.12
64158;BME280;50449;51.528;5.076;2023-03-31T10:06:17;99230.66;;;16.08;57.07
64158;BME280;50449;51.528;5.076;2023-03-31T10:08:50;99228.09;;;16.12;57.07
64158;BME280;50449;51.528;5.076;2023-03-31T10:11:18;99235.94;;;16.13;56.91
64158;BME280;50449;51.528;5.076;2023-03-31T10:14:10;99237.88;;;16.13;56.99
64158;BME280;50449;51.528;5.076;2023-03-31T10:16:47;99224.91;;;16.18;56.45
64158;BME280;50449;51.528;5.076;2023-03-31T10:19:33;99226.00;;;16.17;56.74
64158;BME280;50449;51.528;5.076;2023-03-31T10:24:25;99220.25;;;16.19;56.88
64158;BME280;50449;51.528;5.076;2023-03-31T10:26:53;99219.13;;;16.20;56.61
64158;BME280;50449;51.528;5.076;2023-03-31T10:29:28;99217.38;;;16.24;56.45
64158;BME280;50449;51.528;5.076;2023-03-31T10:32:02;99210.81;;;16.25;56.61
64158;BME280;50449;51.528;5.076;2023-03-31T10:34:28;99208.72;;;16.22;57.11
64158;BME280;50449;51.528;5.076;2023-03-31T10:36:54;99209.34;;;16.28;56.62
64158;BME280;50449;51.528;5.076;2023-03-31T10:39:27;99205.69;;;16.23;56.64
64158;BME280;50449;51.528;5.076;2023-03-31T10:41:53;99207.47;;;16.28;56.67
64158;BME280;50449;51.528;5.076;2023-03-31T10:46:54;99188.84;;;16.30;56.77
64158;BME280;50449;51.528;5.076;2023-03-31T10:49:27;99199.13;;;16.33;56.79
64158;BME280;50449;51.528;5.076;2023-03-31T10:51:54;99197.34;;;16.37;56.96
64158;BME280;50449;51.528;5.076;2023-03-31T10:54:20;99191.59;;;16.39;56.83
64158;BME280;50449;51.528;5.076;2023-03-31T10:56:48;99181.84;;;16.38;56.70
64158;BME280;50449;51.528;5.076;2023-03-31T10:59:42;99184.88;;;16.36;56.81
64158;BME280;50449;51.528;5.076;2023-03-31T11:05:14;99176.19;;;16.34;56.95
64158;BME280;50449;51.528;5.076;2023-03-31T11:15:49;99173.63;;;16.29;56.79
64158;BME280;50449;51.528;5.076;2023-03-31T11:21:27;99156.47;;;16.37;56.96
64158;BME280;50449;51.528;5.076;2023-03-31T11:46:22;99135.19;;;16.48;57.12
64158;BME280;50449;51.528;5.076;2023-03-31T11:48:48;99130.38;;;16.54;56.69
64158;BME280;50449;51.528;5.076;2023-03-31T11:51:38;99118.97;;;16.52;56.64
64158;BME280;50449;51.528;5.076;2023-03-31T11:54:15;99128.28;;;16.51;56.77
64158;BME280;50449;51.528;5.076;2023-03-31T11:56:42;99130.53;;;16.49;56.80
64158;BME280;50449;51.528;5.076;2023-03-31T11:59:14;99154.25;;;16.57;56.42
64158;BME280;50449;51.528;5.076;2023-03-31T12:04:33;99138.69;;;16.57;56.74
64158;BME280;50449;51.528;5.076;2023-03-31T12:10:20;99129.88;;;16.60;56.91
64158;BME280;50449;51.528;5.076;2023-03-31T12:12:52;99143.34;;;16.57;56.55
64158;BME280;50449;51.528;5.076;2023-03-31T12:15:33;99124.09;;;16.62;56.47
64158;BME280;50449;51.528;5.076;2023-03-31T12:18:17;99116.72;;;16.62;56.56
64158;BME280;50449;51.528;5.076;2023-03-31T12:20:55;99111.59;;;16.61;56.74
64158;BME280;50449;51.528;5.076;2023-03-31T12:23:24;99102.91;;;16.67;56.54
64158;BME280;50449;51.528;5.076;2023-03-31T12:26:01;99108.53;;;16.71;56.46
64158;BME280;50449;51.528;5.076;2023-03-31T12:28:31;99086.88;;;16.75;56.85
64158;BME280;50449;51.528;5.076;2023-03-31T12:30:59;99092.00;;;16.76;56.48
64158;BME280;50449;51.528;5.076;2023-03-31T12:33:33;99095.84;;;16.75;56.71
64158;BME280;50449;51.528;5.076;2023-03-31T12:36:28;99096.66;;;16.76;56.43
64158;BME280;50449;51.528;5.076;2023-03-31T12:39:15;99085.41;;;16.77;56.49
64158;BME280;50449;51.528;5.076;2023-03-31T12:50:13;99088.47;;;16.84;56.31
64158;BME280;50449;51.528;5.076;2023-03-31T12:57:46;99091.06;;;16.81;56.79
64158;BME280;50449;51.528;5.076;2023-03-31T13:00:23;99094.25;;;16.83;56.54
64158;BME280;50449;51.528;5.076;2023-03-31T13:02:50;99078.38;;;16.85;56.87
64158;BME280;50449;51.528;5.076;2023-03-31T13:05:46;99079.66;;;16.87;56.48
64158;BME280;50449;51.528;5.076;2023-03-31T13:11:17;99074.69;;;16.90;56.67
64158;BME280;50449;51.528;5.076;2023-03-31T13:16:20;99071.78;;;16.95;56.71
64158;BME280;50449;51.528;5.076;2023-03-31T13:18:50;99064.72;;;16.94;57.12
64158;BME280;50449;51.528;5.076;2023-03-31T13:21:16;99076.44;;;16.94;56.86
64158;BME280;50449;51.528;5.076;2023-03-31T13:23:44;99064.38;;;16.95;56.71
64158;BME280;50449;51.528;5.076;2023-03-31T13:34:29;99056.69;;;16.97;56.91
64158;BME280;50449;51.528;5.076;2023-03-31T13:37:38;99064.06;;;16.97;56.91
64158;BME280;50449;51.528;5.076;2023-03-31T14:01:13;99061.97;;;17.02;56.77
64158;BME280;50449;51.528;5.076;2023-03-31T14:06:56;99064.03;;;17.05;56.75
64158;BME280;50449;51.528;5.076;2023-03-31T14:09:35;99063.41;;;17.08;56.58
64158;BME280;50449;51.528;5.076;2023-03-31T14:12:30;99055.22;;;17.08;56.69
64158;BME280;50449;51.528;5.076;2023-03-31T14:14:56;99049.75;;;17.08;56.62
64158;BME280;50449;51.528;5.076;2023-03-31T14:17:30;99036.56;;;17.11;56.54
64158;BME280;50449;51.528;5.076;2023-03-31T14:23:18;99050.56;;;17.09;56.82
64158;BME280;50449;51.528;5.076;2023-03-31T14:31:34;99042.69;;;17.07;56.93
64158;BME280;50449;51.528;5.076;2023-03-31T14:39:34;99025.66;;;17.11;56.57
64158;BME280;50449;51.528;5.076;2023-03-31T14:42:05;99035.09;;;17.13;56.23
64158;BME280;50449;51.528;5.076;2023-03-31T14:44:36;99018.75;;;17.13;56.30
64158;BME280;50449;51.528;5.076;2023-03-31T14:47:02;99029.03;;;17.16;56.17
64158;BME280;50449;51.528;5.076;2023-03-31T14:50:04;99037.69;;;17.09;56.08
64158;BME280;50449;51.528;5.076;2023-03-31T14:52:31;99032.84;;;17.15;55.98
64158;BME280;50449;51.528;5.076;2023-03-31T14:54:58;99037.34;;;17.20;56.01
64158;BME280;50449;51.528;5.076;2023-03-31T14:57:33;99027.88;;;17.17;55.83
64158;BME280;50449;51.528;5.076;2023-03-31T15:00:04;99029.16;;;17.20;55.91
64158;BME280;50449;51.528;5.076;2023-03-31T15:02:34;99026.94;;;17.13;56.12
64158;BME280;50449;51.528;5.076;2023-03-31T15:05:03;99027.09;;;17.17;56.16
64158;BME280;50449;51.528;5.076;2023-03-31T15:07:31;99025.16;;;17.17;55.88
64158;BME280;50449;51.528;5.076;2023-03-31T15:09:57;99021.28;;;17.18;55.97
64158;BME280;50449;51.528;5.076;2023-03-31T15:12:23;99021.28;;;17.18;56.18
64158;BME280;50449;51.528;5.076;2023-03-31T15:14:51;99022.22;;;17.22;55.84
64158;BME280;50449;51.528;5.076;2023-03-31T15:17:24;99020.31;;;17.23;55.94
64158;BME280;50449;51.528;5.076;2023-03-31T15:19:58;99019.63;;;17.26;55.83
64158;BME280;50449;51.528;5.076;2023-03-31T15:22:26;99015.44;;;17.28;55.53
64158;BME280;50449;51.528;5.076;2023-03-31T15:24:53;99016.91;;;17.26;56.01
64158;BME280;50449;51.528;5.076;2023-03-31T15:27:43;99013.91;;;17.19;55.92
64158;BME280;50449;51.528;5.076;2023-03-31T15:30:18;99011.19;;;17.19;55.67
64158;BME280;50449;51.528;5.076;2023-03-31T15:32:44;99011.50;;;17.17;55.77
64158;BME280;50449;51.528;5.076;2023-03-31T15:37:46;99005.56;;;17.15;55.98
64158;BME280;50449;51.528;5.076;2023-03-31T15:40:35;99001.56;;;17.13;55.96
64158;BME280;50449;51.528;5.076;2023-03-31T15:43:28;99009.44;;;17.14;56.00
64158;BME280;50449;51.528;5.076;2023-03-31T15:45:56;98997.88;;;17.17;55.43
64158;BME280;50449;51.528;5.076;2023-03-31T15:48:36;99008.00;;;17.17;55.65
64158;BME280;50449;51.528;5.076;2023-03-31T15:53:43;98997.38;;;17.15;55.42
64158;BME280;50449;51.528;5.076;2023-03-31T15:56:43;98999.81;;;17.17;55.40
64158;BME280;50449;51.528;5.076;2023-03-31T15:59:29;99005.56;;;17.15;55.46